sensor_id;sensor_type;location;lat;lon;timestamp;P1;durP1;ratioP1;P2;durP2;ratioP2
53010;SDS011;42803;55.762;38.084;2023-05-10T00:01:20;50.30;;;32.35;;
53010;SDS011;42803;55.762;38.084;2023-05-10T00:03:49;54.30;;;33.83;;
53010;SDS011;42803;55.762;38.084;2023-05-10T00:06:18;45.28;;;27.38;;
53010;SDS011;42803;55.762;38.084;2023-05-10T00:08:49;46.45;;;26.83;;
53010;SDS011;42803;55.762;38.084;2023-05-10T00:11:18;43.45;;;22.83;;
53010;SDS011;42803;55.762;38.084;2023-05-10T00:13:49;35.42;;;20.55;;
53010;SDS011;42803;55.762;38.084;2023-05-10T00:16:19;29.85;;;16.17;;
53010;SDS011;42803;55.762;38.084;2023-05-10T00:18:48;29.02;;;15.68;;
53010;SDS011;42803;55.762;38.084;2023-05-10T00:21:17;32.28;;;17.10;;
53010;SDS011;42803;55.762;38.084;2023-05-10T00:23:47;26.92;;;16.00;;
53010;SDS011;42803;55.762;38.084;2023-05-10T00:26:16;30.90;;;16.02;;
53010;SDS011;42803;55.762;38.084;2023-05-10T00:31:21;34.55;;;16.35;;
53010;SDS011;42803;55.762;38.084;2023-05-10T00:33:50;32.28;;;13.98;;
53010;SDS011;42803;55.762;38.084;2023-05-10T00:36:19;28.40;;;14.88;;
53010;SDS011;42803;55.762;38.084;2023-05-10T00:38:49;25.45;;;14.63;;
53010;SDS011;42803;55.762;38.084;2023-05-10T00:41:18;23.85;;;14.27;;
53010;SDS011;42803;55.762;38.084;2023-05-10T00:43:48;24.17;;;13.75;;
53010;SDS011;42803;55.762;38.084;2023-05-10T00:46:17;27.52;;;13.00;;
53010;SDS011;42803;55.762;38.084;2023-05-10T00:48:48;29.00;;;13.20;;
53010;SDS011;42803;55.762;38.084;2023-05-10T00:51:17;31.00;;;13.52;;
53010;SDS011;42803;55.762;38.084;2023-05-10T00:53:46;28.60;;;13.13;;
53010;SDS011;42803;55.762;38.084;2023-05-10T00:56:19;25.15;;;12.25;;
53010;SDS011;42803;55.762;38.084;2023-05-10T00:58:50;19.73;;;9.50;;
53010;SDS011;42803;55.762;38.084;2023-05-10T01:01:19;12.70;;;8.20;;
53010;SDS011;42803;55.762;38.084;2023-05-10T01:03:50;25.33;;;10.32;;
53010;SDS011;42803;55.762;38.084;2023-05-10T01:06:19;16.55;;;7.90;;
53010;SDS011;42803;55.762;38.084;2023-05-10T01:08:49;20.75;;;10.60;;
53010;SDS011;42803;55.762;38.084;2023-05-10T01:11:18;23.33;;;11.65;;
53010;SDS011;42803;55.762;38.084;2023-05-10T01:13:50;29.08;;;13.43;;
53010;SDS011;42803;55.762;38.084;2023-05-10T01:16:24;21.23;;;12.27;;
53010;SDS011;42803;55.762;38.084;2023-05-10T01:18:56;26.42;;;12.15;;
53010;SDS011;42803;55.762;38.084;2023-05-10T01:21:27;23.55;;;12.60;;
53010;SDS011;42803;55.762;38.084;2023-05-10T01:24:07;25.13;;;13.48;;
53010;SDS011;42803;55.762;38.084;2023-05-10T01:30:15;20.67;;;10.20;;
53010;SDS011;42803;55.762;38.084;2023-05-10T01:33:07;17.70;;;8.05;;
53010;SDS011;42803;55.762;38.084;2023-05-10T01:35:46;21.48;;;9.95;;
53010;SDS011;42803;55.762;38.084;2023-05-10T01:38:22;24.20;;;12.82;;
53010;SDS011;42803;55.762;38.084;2023-05-10T01:41:01;17.05;;;9.32;;
53010;SDS011;42803;55.762;38.084;2023-05-10T01:43:43;15.07;;;7.88;;
53010;SDS011;42803;55.762;38.084;2023-05-10T01:46:22;21.55;;;8.38;;
53010;SDS011;42803;55.762;38.084;2023-05-10T01:48:58;12.40;;;7.25;;
53010;SDS011;42803;55.762;38.084;2023-05-10T01:51:32;14.60;;;7.13;;
53010;SDS011;42803;55.762;38.084;2023-05-10T01:54:05;18.92;;;7.82;;
53010;SDS011;42803;55.762;38.084;2023-05-10T01:56:35;12.80;;;7.13;;
53010;SDS011;42803;55.762;38.084;2023-05-10T01:59:08;16.25;;;8.13;;
53010;SDS011;42803;55.762;38.084;2023-05-10T02:01:41;16.73;;;8.00;;
53010;SDS011;42803;55.762;38.084;2023-05-10T02:04:15;18.73;;;9.05;;
53010;SDS011;42803;55.762;38.084;2023-05-10T02:06:46;22.10;;;9.00;;
53010;SDS011;42803;55.762;38.084;2023-05-10T02:09:19;14.23;;;7.32;;
53010;SDS011;42803;55.762;38.084;2023-05-10T02:11:50;22.30;;;9.30;;
53010;SDS011;42803;55.762;38.084;2023-05-10T02:14:20;24.40;;;11.32;;
53010;SDS011;42803;55.762;38.084;2023-05-10T02:16:51;22.13;;;9.82;;
53010;SDS011;42803;55.762;38.084;2023-05-10T02:19:24;21.02;;;10.48;;
53010;SDS011;42803;55.762;38.084;2023-05-10T02:22:16;15.10;;;9.25;;
53010;SDS011;42803;55.762;38.084;2023-05-10T02:24:47;19.13;;;8.75;;
53010;SDS011;42803;55.762;38.084;2023-05-10T02:27:17;15.18;;;9.52;;
53010;SDS011;42803;55.762;38.084;2023-05-10T02:29:48;21.38;;;8.13;;
53010;SDS011;42803;55.762;38.084;2023-05-10T02:32:18;18.13;;;9.30;;
53010;SDS011;42803;55.762;38.084;2023-05-10T02:34:51;20.08;;;8.70;;
53010;SDS011;42803;55.762;38.084;2023-05-10T02:37:21;21.52;;;8.52;;
53010;SDS011;42803;55.762;38.084;2023-05-10T02:39:51;22.35;;;8.93;;
53010;SDS011;42803;55.762;38.084;2023-05-10T02:42:24;19.70;;;8.68;;
53010;SDS011;42803;55.762;38.084;2023-05-10T02:44:59;20.15;;;10.02;;
53010;SDS011;42803;55.762;38.084;2023-05-10T02:47:33;19.85;;;9.93;;
53010;SDS011;42803;55.762;38.084;2023-05-10T02:50:05;22.10;;;10.40;;
53010;SDS011;42803;55.762;38.084;2023-05-10T02:52:39;19.73;;;9.80;;
53010;SDS011;42803;55.762;38.084;2023-05-10T02:55:14;18.50;;;9.20;;
53010;SDS011;42803;55.762;38.084;2023-05-10T02:57:46;14.57;;;8.60;;
53010;SDS011;42803;55.762;38.084;2023-05-10T03:00:19;19.52;;;9.60;;
53010;SDS011;42803;55.762;38.084;2023-05-10T03:02:48;20.00;;;8.77;;
53010;SDS011;42803;55.762;38.084;2023-05-10T03:05:19;17.23;;;9.38;;
53010;SDS011;42803;55.762;38.084;2023-05-10T03:07:48;24.42;;;11.60;;
53010;SDS011;42803;55.762;38.084;2023-05-10T03:10:18;24.60;;;10.77;;
53010;SDS011;42803;55.762;38.084;2023-05-10T03:12:55;21.48;;;9.93;;
53010;SDS011;42803;55.762;38.084;2023-05-10T03:15:37;22.42;;;11.55;;
53010;SDS011;42803;55.762;38.084;2023-05-10T03:18:12;35.20;;;15.18;;
53010;SDS011;42803;55.762;38.084;2023-05-10T03:20:48;31.42;;;11.77;;
53010;SDS011;42803;55.762;38.084;2023-05-10T03:23:21;25.83;;;11.93;;
53010;SDS011;42803;55.762;38.084;2023-05-10T03:25:55;25.92;;;12.02;;
53010;SDS011;42803;55.762;38.084;2023-05-10T03:28:24;31.15;;;12.25;;
53010;SDS011;42803;55.762;38.084;2023-05-10T03:30:55;23.88;;;11.50;;
53010;SDS011;42803;55.762;38.084;2023-05-10T03:33:25;26.73;;;10.73;;
53010;SDS011;42803;55.762;38.084;2023-05-10T03:35:55;26.50;;;11.68;;
53010;SDS011;42803;55.762;38.084;2023-05-10T03:38:25;25.08;;;10.43;;
53010;SDS011;42803;55.762;38.084;2023-05-10T03:40:57;24.20;;;10.25;;
53010;SDS011;42803;55.762;38.084;2023-05-10T03:43:26;26.38;;;11.30;;
53010;SDS011;42803;55.762;38.084;2023-05-10T03:45:55;22.25;;;10.05;;
53010;SDS011;42803;55.762;38.084;2023-05-10T03:48:24;17.92;;;7.80;;
53010;SDS011;42803;55.762;38.084;2023-05-10T03:50:53;22.65;;;7.93;;
53010;SDS011;42803;55.762;38.084;2023-05-10T03:53:23;21.98;;;8.50;;
53010;SDS011;42803;55.762;38.084;2023-05-10T03:55:54;20.48;;;9.52;;
53010;SDS011;42803;55.762;38.084;2023-05-10T03:58:23;19.33;;;9.27;;
53010;SDS011;42803;55.762;38.084;2023-05-10T04:00:52;26.10;;;10.32;;
53010;SDS011;42803;55.762;38.084;2023-05-10T04:03:22;31.05;;;11.20;;
53010;SDS011;42803;55.762;38.084;2023-05-10T04:05:58;18.98;;;9.48;;
53010;SDS011;42803;55.762;38.084;2023-05-10T04:08:29;23.80;;;9.50;;
53010;SDS011;42803;55.762;38.084;2023-05-10T04:11:05;19.45;;;10.15;;
53010;SDS011;42803;55.762;38.084;2023-05-10T04:13:35;24.63;;;10.93;;
53010;SDS011;42803;55.762;38.084;2023-05-10T04:16:05;26.58;;;11.35;;
53010;SDS011;42803;55.762;38.084;2023-05-10T04:18:34;29.63;;;10.30;;
53010;SDS011;42803;55.762;38.084;2023-05-10T04:21:03;29.90;;;11.95;;
53010;SDS011;42803;55.762;38.084;2023-05-10T04:23:34;30.75;;;11.50;;
53010;SDS011;42803;55.762;38.084;2023-05-10T04:26:03;27.02;;;11.40;;
53010;SDS011;42803;55.762;38.084;2023-05-10T04:28:32;31.95;;;11.02;;
53010;SDS011;42803;55.762;38.084;2023-05-10T04:31:01;27.30;;;10.07;;
53010;SDS011;42803;55.762;38.084;2023-05-10T04:33:31;20.38;;;9.00;;
53010;SDS011;42803;55.762;38.084;2023-05-10T04:36:00;30.88;;;8.20;;
53010;SDS011;42803;55.762;38.084;2023-05-10T04:38:30;18.23;;;7.97;;
53010;SDS011;42803;55.762;38.084;2023-05-10T04:41:07;22.73;;;8.43;;
53010;SDS011;42803;55.762;38.084;2023-05-10T04:43:37;19.90;;;8.23;;
53010;SDS011;42803;55.762;38.084;2023-05-10T04:46:06;15.60;;;6.55;;
53010;SDS011;42803;55.762;38.084;2023-05-10T04:48:36;15.63;;;5.97;;
53010;SDS011;42803;55.762;38.084;2023-05-10T04:51:05;24.10;;;7.30;;
53010;SDS011;42803;55.762;38.084;2023-05-10T04:53:34;17.27;;;7.55;;
53010;SDS011;42803;55.762;38.084;2023-05-10T04:56:04;17.90;;;6.28;;
53010;SDS011;42803;55.762;38.084;2023-05-10T04:58:35;15.40;;;6.13;;
53010;SDS011;42803;55.762;38.084;2023-05-10T05:01:04;15.93;;;5.30;;
53010;SDS011;42803;55.762;38.084;2023-05-10T05:03:35;9.55;;;4.40;;
53010;SDS011;42803;55.762;38.084;2023-05-10T05:06:05;8.90;;;4.05;;
53010;SDS011;42803;55.762;38.084;2023-05-10T05:08:34;9.90;;;4.63;;
53010;SDS011;42803;55.762;38.084;2023-05-10T05:11:04;11.65;;;4.40;;
53010;SDS011;42803;55.762;38.084;2023-05-10T05:13:33;8.63;;;3.85;;
53010;SDS011;42803;55.762;38.084;2023-05-10T05:16:03;11.57;;;4.43;;
53010;SDS011;42803;55.762;38.084;2023-05-10T05:18:33;8.25;;;3.38;;
53010;SDS011;42803;55.762;38.084;2023-05-10T05:21:02;5.78;;;3.25;;
53010;SDS011;42803;55.762;38.084;2023-05-10T05:23:31;4.95;;;2.40;;
53010;SDS011;42803;55.762;38.084;2023-05-10T05:26:00;3.72;;;2.38;;
53010;SDS011;42803;55.762;38.084;2023-05-10T05:28:29;8.55;;;3.63;;
53010;SDS011;42803;55.762;38.084;2023-05-10T05:31:01;6.35;;;3.22;;
53010;SDS011;42803;55.762;38.084;2023-05-10T05:33:30;6.47;;;2.72;;
53010;SDS011;42803;55.762;38.084;2023-05-10T05:36:00;12.02;;;3.08;;
53010;SDS011;42803;55.762;38.084;2023-05-10T05:38:29;5.65;;;2.97;;
53010;SDS011;42803;55.762;38.084;2023-05-10T05:40:59;5.63;;;2.67;;
53010;SDS011;42803;55.762;38.084;2023-05-10T05:43:28;4.13;;;2.60;;
53010;SDS011;42803;55.762;38.084;2023-05-10T05:45:57;4.82;;;2.42;;
53010;SDS011;42803;55.762;38.084;2023-05-10T05:48:28;5.15;;;2.97;;
53010;SDS011;42803;55.762;38.084;2023-05-10T05:50:58;5.25;;;2.78;;
53010;SDS011;42803;55.762;38.084;2023-05-10T05:53:27;8.52;;;3.03;;
53010;SDS011;42803;55.762;38.084;2023-05-10T05:55:57;5.88;;;2.60;;
53010;SDS011;42803;55.762;38.084;2023-05-10T05:58:27;6.25;;;2.83;;
53010;SDS011;42803;55.762;38.084;2023-05-10T06:00:56;8.25;;;3.38;;
53010;SDS011;42803;55.762;38.084;2023-05-10T06:03:25;7.63;;;2.55;;
53010;SDS011;42803;55.762;38.084;2023-05-10T06:05:55;9.82;;;3.05;;
53010;SDS011;42803;55.762;38.084;2023-05-10T06:08:24;4.40;;;2.05;;
53010;SDS011;42803;55.762;38.084;2023-05-10T06:10:54;4.75;;;2.22;;
53010;SDS011;42803;55.762;38.084;2023-05-10T06:13:23;4.40;;;2.35;;
53010;SDS011;42803;55.762;38.084;2023-05-10T06:15:52;3.92;;;2.15;;
53010;SDS011;42803;55.762;38.084;2023-05-10T06:18:21;5.65;;;2.03;;
53010;SDS011;42803;55.762;38.084;2023-05-10T06:20:50;13.45;;;2.50;;
53010;SDS011;42803;55.762;38.084;2023-05-10T06:23:21;3.15;;;2.10;;
53010;SDS011;42803;55.762;38.084;2023-05-10T06:25:50;11.07;;;2.30;;
53010;SDS011;42803;55.762;38.084;2023-05-10T06:28:20;2.88;;;1.88;;
53010;SDS011;42803;55.762;38.084;2023-05-10T06:30:49;6.68;;;1.60;;
53010;SDS011;42803;55.762;38.084;2023-05-10T06:33:18;3.53;;;1.55;;
53010;SDS011;42803;55.762;38.084;2023-05-10T06:35:47;4.28;;;2.20;;
53010;SDS011;42803;55.762;38.084;2023-05-10T06:38:16;19.15;;;3.42;;
53010;SDS011;42803;55.762;38.084;2023-05-10T06:40:47;3.08;;;1.50;;
53010;SDS011;42803;55.762;38.084;2023-05-10T06:43:16;7.32;;;1.60;;
53010;SDS011;42803;55.762;38.084;2023-05-10T06:45:45;7.50;;;2.10;;
53010;SDS011;42803;55.762;38.084;2023-05-10T06:48:15;1.98;;;1.40;;
53010;SDS011;42803;55.762;38.084;2023-05-10T06:50:46;1.98;;;1.60;;
53010;SDS011;42803;55.762;38.084;2023-05-10T06:53:15;15.23;;;6.13;;
53010;SDS011;42803;55.762;38.084;2023-05-10T06:55:44;6.65;;;2.42;;
53010;SDS011;42803;55.762;38.084;2023-05-10T06:58:15;3.60;;;1.45;;
53010;SDS011;42803;55.762;38.084;2023-05-10T07:00:44;9.75;;;1.80;;
53010;SDS011;42803;55.762;38.084;2023-05-10T07:03:14;9.32;;;1.85;;
53010;SDS011;42803;55.762;38.084;2023-05-10T07:05:43;4.55;;;1.70;;
53010;SDS011;42803;55.762;38.084;2023-05-10T07:08:12;5.13;;;1.70;;
53010;SDS011;42803;55.762;38.084;2023-05-10T07:10:42;5.30;;;1.40;;
53010;SDS011;42803;55.762;38.084;2023-05-10T07:13:11;2.63;;;1.20;;
53010;SDS011;42803;55.762;38.084;2023-05-10T07:15:41;12.00;;;1.90;;
53010;SDS011;42803;55.762;38.084;2023-05-10T07:18:10;2.20;;;1.48;;
53010;SDS011;42803;55.762;38.084;2023-05-10T07:20:40;2.13;;;0.88;;
53010;SDS011;42803;55.762;38.084;2023-05-10T07:23:09;2.10;;;1.48;;
53010;SDS011;42803;55.762;38.084;2023-05-10T07:25:38;2.38;;;1.30;;
53010;SDS011;42803;55.762;38.084;2023-05-10T07:28:07;2.00;;;1.10;;
53010;SDS011;42803;55.762;38.084;2023-05-10T07:30:36;2.13;;;1.10;;
53010;SDS011;42803;55.762;38.084;2023-05-10T07:33:07;2.45;;;1.20;;
53010;SDS011;42803;55.762;38.084;2023-05-10T07:35:36;4.65;;;1.27;;
53010;SDS011;42803;55.762;38.084;2023-05-10T07:38:06;2.15;;;1.00;;
53010;SDS011;42803;55.762;38.084;2023-05-10T07:40:35;3.83;;;1.00;;
53010;SDS011;42803;55.762;38.084;2023-05-10T07:43:04;2.38;;;1.10;;
53010;SDS011;42803;55.762;38.084;2023-05-10T07:45:33;3.80;;;1.20;;
53010;SDS011;42803;55.762;38.084;2023-05-10T07:48:03;1.10;;;0.90;;
53010;SDS011;42803;55.762;38.084;2023-05-10T07:50:34;2.05;;;0.90;;
53010;SDS011;42803;55.762;38.084;2023-05-10T07:53:03;2.53;;;1.35;;
53010;SDS011;42803;55.762;38.084;2023-05-10T07:55:32;3.25;;;1.17;;
53010;SDS011;42803;55.762;38.084;2023-05-10T07:58:02;3.38;;;1.30;;
53010;SDS011;42803;55.762;38.084;2023-05-10T08:00:35;3.78;;;2.13;;
53010;SDS011;42803;55.762;38.084;2023-05-10T08:03:06;2.65;;;1.30;;
53010;SDS011;42803;55.762;38.084;2023-05-10T08:05:39;3.30;;;1.40;;
53010;SDS011;42803;55.762;38.084;2023-05-10T08:08:08;2.33;;;1.20;;
53010;SDS011;42803;55.762;38.084;2023-05-10T08:10:38;5.90;;;3.35;;
53010;SDS011;42803;55.762;38.084;2023-05-10T08:13:07;5.20;;;1.10;;
53010;SDS011;42803;55.762;38.084;2023-05-10T08:15:36;1.60;;;1.10;;
53010;SDS011;42803;55.762;38.084;2023-05-10T08:18:06;1.50;;;1.08;;
53010;SDS011;42803;55.762;38.084;2023-05-10T08:20:35;2.92;;;1.13;;
53010;SDS011;42803;55.762;38.084;2023-05-10T08:23:05;3.25;;;1.13;;
53010;SDS011;42803;55.762;38.084;2023-05-10T08:25:34;3.05;;;1.50;;
53010;SDS011;42803;55.762;38.084;2023-05-10T08:28:04;1.13;;;1.00;;
53010;SDS011;42803;55.762;38.084;2023-05-10T08:30:36;2.95;;;1.05;;
53010;SDS011;42803;55.762;38.084;2023-05-10T08:33:05;1.33;;;0.90;;
53010;SDS011;42803;55.762;38.084;2023-05-10T08:35:34;1.83;;;1.25;;
53010;SDS011;42803;55.762;38.084;2023-05-10T08:38:04;3.30;;;1.30;;
53010;SDS011;42803;55.762;38.084;2023-05-10T08:40:34;1.73;;;1.00;;
53010;SDS011;42803;55.762;38.084;2023-05-10T08:43:06;3.63;;;1.10;;
53010;SDS011;42803;55.762;38.084;2023-05-10T08:45:38;2.28;;;1.13;;
53010;SDS011;42803;55.762;38.084;2023-05-10T08:48:10;2.40;;;1.48;;
53010;SDS011;42803;55.762;38.084;2023-05-10T08:50:40;2.60;;;1.33;;
53010;SDS011;42803;55.762;38.084;2023-05-10T08:53:13;1.23;;;1.00;;
53010;SDS011;42803;55.762;38.084;2023-05-10T08:55:43;3.05;;;1.75;;
53010;SDS011;42803;55.762;38.084;2023-05-10T08:58:13;1.63;;;1.10;;
53010;SDS011;42803;55.762;38.084;2023-05-10T09:00:42;4.90;;;1.42;;
53010;SDS011;42803;55.762;38.084;2023-05-10T09:03:12;2.90;;;1.55;;
53010;SDS011;42803;55.762;38.084;2023-05-10T09:05:42;2.20;;;1.30;;
53010;SDS011;42803;55.762;38.084;2023-05-10T09:08:13;1.73;;;1.15;;
53010;SDS011;42803;55.762;38.084;2023-05-10T09:10:44;4.47;;;1.35;;
53010;SDS011;42803;55.762;38.084;2023-05-10T09:13:15;5.00;;;1.60;;
53010;SDS011;42803;55.762;38.084;2023-05-10T09:15:45;1.67;;;1.02;;
53010;SDS011;42803;55.762;38.084;2023-05-10T09:18:15;6.75;;;1.25;;
53010;SDS011;42803;55.762;38.084;2023-05-10T09:20:44;7.90;;;3.78;;
53010;SDS011;42803;55.762;38.084;2023-05-10T09:23:15;3.35;;;1.40;;
53010;SDS011;42803;55.762;38.084;2023-05-10T09:25:44;1.95;;;0.90;;
53010;SDS011;42803;55.762;38.084;2023-05-10T09:28:15;1.10;;;0.93;;
53010;SDS011;42803;55.762;38.084;2023-05-10T09:30:44;1.92;;;1.17;;
53010;SDS011;42803;55.762;38.084;2023-05-10T09:33:23;1.58;;;1.13;;
53010;SDS011;42803;55.762;38.084;2023-05-10T09:35:54;1.35;;;1.05;;
53010;SDS011;42803;55.762;38.084;2023-05-10T09:38:24;1.70;;;1.23;;
53010;SDS011;42803;55.762;38.084;2023-05-10T09:40:54;2.70;;;1.00;;
53010;SDS011;42803;55.762;38.084;2023-05-10T09:43:24;1.25;;;0.90;;
53010;SDS011;42803;55.762;38.084;2023-05-10T09:45:54;3.05;;;1.00;;
53010;SDS011;42803;55.762;38.084;2023-05-10T09:48:24;3.63;;;1.20;;
53010;SDS011;42803;55.762;38.084;2023-05-10T09:50:56;3.25;;;1.10;;
53010;SDS011;42803;55.762;38.084;2023-05-10T09:53:27;1.05;;;0.95;;
53010;SDS011;42803;55.762;38.084;2023-05-10T09:55:56;2.80;;;1.48;;
53010;SDS011;42803;55.762;38.084;2023-05-10T09:58:25;1.77;;;1.02;;
53010;SDS011;42803;55.762;38.084;2023-05-10T10:00:55;1.63;;;0.90;;
53010;SDS011;42803;55.762;38.084;2023-05-10T10:03:24;1.52;;;1.20;;
53010;SDS011;42803;55.762;38.084;2023-05-10T10:05:56;4.43;;;1.20;;
53010;SDS011;42803;55.762;38.084;2023-05-10T10:08:27;2.83;;;1.30;;
53010;SDS011;42803;55.762;38.084;2023-05-10T10:10:57;4.57;;;1.25;;
53010;SDS011;42803;55.762;38.084;2023-05-10T10:13:27;1.52;;;1.40;;
53010;SDS011;42803;55.762;38.084;2023-05-10T10:16:02;16.08;;;2.40;;
53010;SDS011;42803;55.762;38.084;2023-05-10T10:18:33;3.50;;;1.77;;
53010;SDS011;42803;55.762;38.084;2023-05-10T10:21:07;8.13;;;2.53;;
53010;SDS011;42803;55.762;38.084;2023-05-10T10:28:51;7.72;;;1.52;;
53010;SDS011;42803;55.762;38.084;2023-05-10T10:31:32;2.38;;;1.30;;
53010;SDS011;42803;55.762;38.084;2023-05-10T10:34:06;1.83;;;1.40;;
53010;SDS011;42803;55.762;38.084;2023-05-10T10:36:42;3.47;;;1.10;;
53010;SDS011;42803;55.762;38.084;2023-05-10T10:39:14;4.60;;;1.60;;
53010;SDS011;42803;55.762;38.084;2023-05-10T10:41:49;9.55;;;2.92;;
53010;SDS011;42803;55.762;38.084;2023-05-10T10:44:24;7.70;;;2.35;;
53010;SDS011;42803;55.762;38.084;2023-05-10T10:46:59;4.70;;;1.50;;
53010;SDS011;42803;55.762;38.084;2023-05-10T10:49:51;3.08;;;1.60;;
53010;SDS011;42803;55.762;38.084;2023-05-10T10:52:32;2.30;;;1.25;;
53010;SDS011;42803;55.762;38.084;2023-05-10T10:55:03;3.78;;;1.35;;
53010;SDS011;42803;55.762;38.084;2023-05-10T10:57:45;7.93;;;3.83;;
53010;SDS011;42803;55.762;38.084;2023-05-10T11:00:24;4.13;;;1.13;;
53010;SDS011;42803;55.762;38.084;2023-05-10T11:02:59;1.70;;;1.27;;
53010;SDS011;42803;55.762;38.084;2023-05-10T11:05:36;5.70;;;1.65;;
53010;SDS011;42803;55.762;38.084;2023-05-10T11:08:09;2.55;;;1.20;;
53010;SDS011;42803;55.762;38.084;2023-05-10T11:10:50;2.58;;;1.20;;
53010;SDS011;42803;55.762;38.084;2023-05-10T11:13:28;3.17;;;1.35;;
53010;SDS011;42803;55.762;38.084;2023-05-10T11:16:09;2.10;;;1.30;;
53010;SDS011;42803;55.762;38.084;2023-05-10T11:18:40;1.20;;;1.00;;
53010;SDS011;42803;55.762;38.084;2023-05-10T11:21:20;2.92;;;1.30;;
53010;SDS011;42803;55.762;38.084;2023-05-10T11:23:50;1.98;;;1.48;;
53010;SDS011;42803;55.762;38.084;2023-05-10T11:26:25;1.80;;;1.40;;
53010;SDS011;42803;55.762;38.084;2023-05-10T11:28:58;3.38;;;1.40;;
53010;SDS011;42803;55.762;38.084;2023-05-10T11:31:31;3.13;;;1.00;;
53010;SDS011;42803;55.762;38.084;2023-05-10T11:34:00;1.98;;;1.30;;
53010;SDS011;42803;55.762;38.084;2023-05-10T11:36:32;2.22;;;1.35;;
53010;SDS011;42803;55.762;38.084;2023-05-10T11:39:04;3.95;;;1.52;;
53010;SDS011;42803;55.762;38.084;2023-05-10T11:41:34;1.63;;;1.10;;
53010;SDS011;42803;55.762;38.084;2023-05-10T11:44:03;1.75;;;1.10;;
53010;SDS011;42803;55.762;38.084;2023-05-10T11:46:34;1.73;;;1.17;;
53010;SDS011;42803;55.762;38.084;2023-05-10T11:49:05;2.35;;;1.58;;
53010;SDS011;42803;55.762;38.084;2023-05-10T11:51:36;2.20;;;1.30;;
53010;SDS011;42803;55.762;38.084;2023-05-10T11:54:07;3.72;;;1.20;;
53010;SDS011;42803;55.762;38.084;2023-05-10T11:56:38;2.03;;;1.30;;
53010;SDS011;42803;55.762;38.084;2023-05-10T11:59:08;2.33;;;1.30;;
53010;SDS011;42803;55.762;38.084;2023-05-10T12:01:39;1.42;;;1.20;;
53010;SDS011;42803;55.762;38.084;2023-05-10T12:04:08;3.67;;;1.40;;
53010;SDS011;42803;55.762;38.084;2023-05-10T12:06:39;2.40;;;1.30;;
53010;SDS011;42803;55.762;38.084;2023-05-10T12:09:09;1.85;;;1.27;;
53010;SDS011;42803;55.762;38.084;2023-05-10T12:11:39;1.45;;;1.33;;
53010;SDS011;42803;55.762;38.084;2023-05-10T12:14:11;2.53;;;1.42;;
53010;SDS011;42803;55.762;38.084;2023-05-10T12:16:42;2.17;;;1.13;;
53010;SDS011;42803;55.762;38.084;2023-05-10T12:19:12;2.00;;;1.40;;
53010;SDS011;42803;55.762;38.084;2023-05-10T12:21:48;2.97;;;1.30;;
53010;SDS011;42803;55.762;38.084;2023-05-10T12:24:17;4.10;;;1.48;;
53010;SDS011;42803;55.762;38.084;2023-05-10T12:26:49;4.05;;;1.20;;
53010;SDS011;42803;55.762;38.084;2023-05-10T12:29:36;1.40;;;1.30;;
53010;SDS011;42803;55.762;38.084;2023-05-10T12:32:10;1.45;;;1.10;;
53010;SDS011;42803;55.762;38.084;2023-05-10T12:34:39;1.38;;;1.10;;
53010;SDS011;42803;55.762;38.084;2023-05-10T12:37:08;5.28;;;2.85;;
53010;SDS011;42803;55.762;38.084;2023-05-10T12:39:38;4.28;;;1.40;;
53010;SDS011;42803;55.762;38.084;2023-05-10T12:42:09;3.95;;;1.27;;
53010;SDS011;42803;55.762;38.084;2023-05-10T12:44:39;3.70;;;1.45;;
53010;SDS011;42803;55.762;38.084;2023-05-10T12:47:09;3.00;;;2.00;;
53010;SDS011;42803;55.762;38.084;2023-05-10T12:49:46;3.53;;;1.90;;
53010;SDS011;42803;55.762;38.084;2023-05-10T12:52:15;1.38;;;1.23;;
53010;SDS011;42803;55.762;38.084;2023-05-10T12:54:45;2.80;;;1.45;;
53010;SDS011;42803;55.762;38.084;2023-05-10T12:57:14;2.53;;;1.40;;
53010;SDS011;42803;55.762;38.084;2023-05-10T12:59:43;1.58;;;1.13;;
53010;SDS011;42803;55.762;38.084;2023-05-10T13:02:14;2.20;;;1.10;;
53010;SDS011;42803;55.762;38.084;2023-05-10T13:04:45;2.17;;;1.20;;
53010;SDS011;42803;55.762;38.084;2023-05-10T13:07:17;5.88;;;1.42;;
53010;SDS011;42803;55.762;38.084;2023-05-10T13:09:47;2.45;;;1.30;;
53010;SDS011;42803;55.762;38.084;2023-05-10T13:12:16;1.63;;;1.08;;
53010;SDS011;42803;55.762;38.084;2023-05-10T13:14:45;2.20;;;1.40;;
53010;SDS011;42803;55.762;38.084;2023-05-10T13:17:16;4.13;;;1.48;;
53010;SDS011;42803;55.762;38.084;2023-05-10T13:19:45;2.00;;;1.40;;
53010;SDS011;42803;55.762;38.084;2023-05-10T13:22:14;3.00;;;1.40;;
53010;SDS011;42803;55.762;38.084;2023-05-10T13:24:59;3.47;;;1.80;;
53010;SDS011;42803;55.762;38.084;2023-05-10T13:27:30;2.78;;;1.30;;
53010;SDS011;42803;55.762;38.084;2023-05-10T13:29:59;3.33;;;1.48;;
53010;SDS011;42803;55.762;38.084;2023-05-10T13:32:33;3.03;;;1.20;;
53010;SDS011;42803;55.762;38.084;2023-05-10T13:35:03;2.95;;;1.48;;
53010;SDS011;42803;55.762;38.084;2023-05-10T13:37:34;3.15;;;1.20;;
53010;SDS011;42803;55.762;38.084;2023-05-10T13:40:05;2.55;;;1.40;;
53010;SDS011;42803;55.762;38.084;2023-05-10T13:42:35;3.65;;;1.20;;
53010;SDS011;42803;55.762;38.084;2023-05-10T13:45:05;2.25;;;1.20;;
53010;SDS011;42803;55.762;38.084;2023-05-10T13:47:36;6.20;;;2.75;;
53010;SDS011;42803;55.762;38.084;2023-05-10T13:50:05;1.75;;;1.33;;
53010;SDS011;42803;55.762;38.084;2023-05-10T13:52:35;3.38;;;1.40;;
53010;SDS011;42803;55.762;38.084;2023-05-10T13:55:04;3.42;;;1.30;;
53010;SDS011;42803;55.762;38.084;2023-05-10T13:57:34;2.78;;;1.60;;
53010;SDS011;42803;55.762;38.084;2023-05-10T14:00:04;2.38;;;1.40;;
53010;SDS011;42803;55.762;38.084;2023-05-10T14:02:37;3.50;;;1.48;;
53010;SDS011;42803;55.762;38.084;2023-05-10T14:05:06;3.38;;;1.65;;
53010;SDS011;42803;55.762;38.084;2023-05-10T14:07:35;1.90;;;1.20;;
53010;SDS011;42803;55.762;38.084;2023-05-10T14:10:05;2.15;;;1.02;;
53010;SDS011;42803;55.762;38.084;2023-05-10T14:12:35;2.72;;;1.58;;
53010;SDS011;42803;55.762;38.084;2023-05-10T14:15:04;2.55;;;1.10;;
53010;SDS011;42803;55.762;38.084;2023-05-10T14:17:34;3.72;;;1.42;;
53010;SDS011;42803;55.762;38.084;2023-05-10T14:20:05;3.85;;;1.73;;
53010;SDS011;42803;55.762;38.084;2023-05-10T14:22:35;4.03;;;1.33;;
53010;SDS011;42803;55.762;38.084;2023-05-10T14:25:05;2.28;;;1.42;;
53010;SDS011;42803;55.762;38.084;2023-05-10T14:27:34;1.70;;;1.42;;
53010;SDS011;42803;55.762;38.084;2023-05-10T14:30:04;2.40;;;1.17;;
53010;SDS011;42803;55.762;38.084;2023-05-10T14:32:34;2.92;;;1.27;;
53010;SDS011;42803;55.762;38.084;2023-05-10T14:35:05;1.52;;;1.15;;
53010;SDS011;42803;55.762;38.084;2023-05-10T14:37:39;2.85;;;1.10;;
53010;SDS011;42803;55.762;38.084;2023-05-10T14:40:08;3.35;;;1.35;;
53010;SDS011;42803;55.762;38.084;2023-05-10T14:42:38;4.03;;;1.58;;
53010;SDS011;42803;55.762;38.084;2023-05-10T14:45:08;2.80;;;1.25;;
53010;SDS011;42803;55.762;38.084;2023-05-10T14:47:38;1.77;;;1.20;;
53010;SDS011;42803;55.762;38.084;2023-05-10T14:50:09;1.65;;;1.30;;
53010;SDS011;42803;55.762;38.084;2023-05-10T14:52:58;2.47;;;1.30;;
53010;SDS011;42803;55.762;38.084;2023-05-10T14:55:27;2.75;;;1.20;;
53010;SDS011;42803;55.762;38.084;2023-05-10T14:57:56;2.85;;;1.25;;
53010;SDS011;42803;55.762;38.084;2023-05-10T15:00:26;2.08;;;1.25;;
53010;SDS011;42803;55.762;38.084;2023-05-10T15:02:58;1.70;;;1.38;;